Time;durP1;ratioP1;P1;durP2;ratioP2;P2;SDS_P1;SDS_P2;PMS_P1;PMS_P2;Temp;Humidity;BMP_temperature;BMP_pressure;BME280_temperature;BME280_humidity;BME280_pressure;Samples;Min_cycle;Max_cycle;Signal;HPM_P1;HPM_P2
2023/10/29 00:02:23;;;;;;;1.90;1.80;;;;;;;;;;5045283;28;20399;-64
2023/10/29 00:04:49;;;;;;;2.95;2.60;;;;;;;;;;5046764;28;20047;-65
2023/10/29 00:07:15;;;;;;;2.60;2.28;;;;;;;;;;5044283;28;20070;-65
2023/10/29 00:09:41;;;;;;;2.03;1.88;;;;;;;;;;5046567;28;20045;-64
2023/10/29 00:12:07;;;;;;;2.53;2.33;;;;;;;;;;5046770;28;20055;-64
2023/10/29 00:14:33;;;;;;;2.97;2.30;;;;;;;;;;5045171;28;20044;-64
2023/10/29 00:16:59;;;;;;;2.50;2.20;;;;;;;;;;5046693;28;20044;-64
2023/10/29 00:19:25;;;;;;;2.15;1.90;;;;;;;;;;5046438;28;20041;-64
2023/10/29 00:21:51;;;;;;;2.97;2.28;;;;;;;;;;5044007;28;20402;-64
2023/10/29 00:24:17;;;;;;;2.20;2.00;;;;;;;;;;5044657;28;20111;-64
2023/10/29 00:26:43;;;;;;;1.70;1.60;;;;;;;;;;5036685;28;20044;-64
2023/10/29 00:29:09;;;;;;;1.55;1.40;;;;;;;;;;5044266;28;20084;-63
2023/10/29 00:31:35;;;;;;;2.65;1.90;;;;;;;;;;5044455;28;20408;-65
2023/10/29 00:34:03;;;;;;;2.38;1.67;;;;;;;;;;5044411;28;20505;-64
2023/10/29 00:36:29;;;;;;;2.35;1.98;;;;;;;;;;5044850;28;20056;-64
2023/10/29 00:38:55;;;;;;;3.28;1.63;;;;;;;;;;5035984;28;20045;-64
2023/10/29 00:41:21;;;;;;;2.33;1.70;;;;;;;;;;5044635;28;20053;-64
2023/10/29 00:43:47;;;;;;;1.33;1.15;;;;;;;;;;5043011;28;20305;-64
2023/10/29 00:46:15;;;;;;;3.20;1.90;;;;;;;;;;5043801;28;20044;-64
2023/10/29 00:48:42;;;;;;;1.77;1.67;;;;;;;;;;5045351;28;20049;-64
2023/10/29 00:51:08;;;;;;;1.52;1.42;;;;;;;;;;5053363;28;20055;-64
2023/10/29 00:53:34;;;;;;;1.92;1.80;;;;;;;;;;5045930;28;20514;-64
2023/10/29 00:56:01;;;;;;;1.88;1.77;;;;;;;;;;5045207;28;20044;-64
2023/10/29 00:58:28;;;;;;;1.77;1.50;;;;;;;;;;5044491;28;20045;-64
2023/10/29 01:00:54;;;;;;;1.80;1.70;;;;;;;;;;5045013;28;20106;-64
2023/10/29 01:03:20;;;;;;;1.92;1.83;;;;;;;;;;5044767;28;20029;-64
2023/10/29 01:05:46;;;;;;;1.65;1.55;;;;;;;;;;5043946;28;20064;-64
2023/10/29 01:08:12;;;;;;;2.85;1.90;;;;;;;;;;5045029;28;20045;-64
2023/10/29 01:10:38;;;;;;;1.58;1.48;;;;;;;;;;5043510;28;20041;-64
2023/10/29 01:13:05;;;;;;;1.95;1.42;;;;;;;;;;5043438;28;20039;-64
2023/10/29 01:15:32;;;;;;;1.40;1.30;;;;;;;;;;5045504;28;20525;-64
2023/10/29 01:17:59;;;;;;;1.10;1.10;;;;;;;;;;5043591;28;20036;-64
2023/10/29 01:20:25;;;;;;;1.40;1.30;;;;;;;;;;5059627;28;20138;-64
2023/10/29 01:22:51;;;;;;;1.38;1.27;;;;;;;;;;5044894;28;20506;-64
2023/10/29 01:25:17;;;;;;;1.35;1.25;;;;;;;;;;5043893;28;20051;-64
2023/10/29 01:27:44;;;;;;;1.27;1.10;;;;;;;;;;5036985;28;20041;-64
2023/10/29 01:30:11;;;;;;;1.20;1.10;;;;;;;;;;5041721;28;20053;-64
2023/10/29 01:32:38;;;;;;;1.38;1.27;;;;;;;;;;5043343;28;20138;-64
2023/10/29 01:35:04;;;;;;;1.30;1.20;;;;;;;;;;5045389;28;20118;-64
2023/10/29 01:37:30;;;;;;;1.50;1.40;;;;;;;;;;5043334;28;20045;-64
2023/10/29 01:39:56;;;;;;;1.30;1.20;;;;;;;;;;5043564;28;20621;-64
2023/10/29 01:42:22;;;;;;;1.27;1.17;;;;;;;;;;5043453;28;20098;-64
2023/10/29 01:44:48;;;;;;;1.85;1.67;;;;;;;;;;5042249;28;20446;-64
2023/10/29 01:47:14;;;;;;;2.10;1.65;;;;;;;;;;5044543;28;20132;-64
2023/10/29 01:49:41;;;;;;;1.35;1.25;;;;;;;;;;5042996;28;20060;-64
2023/10/29 01:52:07;;;;;;;2.40;2.20;;;;;;;;;;5043747;28;20056;-64
2023/10/29 01:54:33;;;;;;;3.33;1.50;;;;;;;;;;5043575;28;20048;-64
2023/10/29 01:57:00;;;;;;;2.08;1.88;;;;;;;;;;5044045;28;20439;-64
2023/10/29 01:59:26;;;;;;;2.63;1.95;;;;;;;;;;5043798;28;20044;-64
2023/10/29 02:01:52;;;;;;;2.33;1.30;;;;;;;;;;5043281;28;20492;-63
2023/10/29 02:04:18;;;;;;;1.73;1.60;;;;;;;;;;5042248;28;20037;-63
2023/10/29 02:06:44;;;;;;;1.70;1.60;;;;;;;;;;5041714;28;20119;-64
2023/10/29 02:09:10;;;;;;;1.83;1.73;;;;;;;;;;5042949;28;20068;-64
2023/10/29 02:11:40;;;;;;;1.50;1.40;;;;;;;;;;5044769;28;20048;-64
2023/10/29 02:14:06;;;;;;;2.03;1.50;;;;;;;;;;5043416;28;20056;-64
2023/10/29 02:16:32;;;;;;;1.80;1.70;;;;;;;;;;5043133;28;20546;-64
2023/10/29 02:18:58;;;;;;;1.98;1.35;;;;;;;;;;5044339;28;20106;-64
2023/10/29 02:21:24;;;;;;;2.45;1.35;;;;;;;;;;5042042;28;20497;-64
2023/10/29 02:23:50;;;;;;;1.70;1.55;;;;;;;;;;5042889;28;20032;-64
2023/10/29 02:26:17;;;;;;;2.50;1.88;;;;;;;;;;5041030;28;20518;-64
2023/10/29 02:28:42;;;;;;;2.45;1.58;;;;;;;;;;5042127;28;20394;-64
2023/10/29 02:31:09;;;;;;;1.67;1.25;;;;;;;;;;5044270;28;20056;-64
2023/10/29 02:33:35;;;;;;;1.70;1.60;;;;;;;;;;5043701;28;20151;-64
2023/10/29 02:36:01;;;;;;;1.35;1.25;;;;;;;;;;5043095;28;20048;-64
2023/10/29 02:38:27;;;;;;;1.90;1.20;;;;;;;;;;5042656;28;20041;-64
2023/10/29 02:40:53;;;;;;;1.45;1.35;;;;;;;;;;5042116;28;20055;-64
2023/10/29 02:43:19;;;;;;;1.67;1.20;;;;;;;;;;5043620;28;20040;-64
2023/10/29 02:45:45;;;;;;;2.05;1.05;;;;;;;;;;5042897;28;20045;-64
2023/10/29 02:48:11;;;;;;;1.05;0.95;;;;;;;;;;5042868;28;20048;-64
2023/10/29 02:50:38;;;;;;;1.30;1.20;;;;;;;;;;5043401;28;20507;-64
2023/10/29 02:53:04;;;;;;;5.30;2.00;;;;;;;;;;5042204;28;20041;-64
2023/10/29 02:55:30;;;;;;;1.20;1.10;;;;;;;;;;5039923;28;20049;-63
2023/10/29 02:57:56;;;;;;;1.75;1.48;;;;;;;;;;5040927;28;20362;-64
2023/10/29 03:00:23;;;;;;;2.65;1.10;;;;;;;;;;5041473;28;20254;-64
2023/10/29 03:02:49;;;;;;;1.52;1.00;;;;;;;;;;5040833;28;20072;-64
2023/10/29 03:05:15;;;;;;;1.75;1.13;;;;;;;;;;5042425;28;20051;-64
2023/10/29 03:07:41;;;;;;;2.08;1.20;;;;;;;;;;5045221;28;20049;-64
2023/10/29 03:10:08;;;;;;;1.23;1.00;;;;;;;;;;5044399;28;20124;-64
2023/10/29 03:12:34;;;;;;;2.78;1.35;;;;;;;;;;5044766;28;20055;-64
2023/10/29 03:15:00;;;;;;;1.00;0.95;;;;;;;;;;5045245;28;20064;-63
2023/10/29 03:17:26;;;;;;;1.52;1.17;;;;;;;;;;5043350;28;20345;-64
2023/10/29 03:19:53;;;;;;;1.10;1.00;;;;;;;;;;5045742;28;20055;-64
2023/10/29 03:22:19;;;;;;;0.93;0.93;;;;;;;;;;5045997;28;20053;-64
2023/10/29 03:24:44;;;;;;;1.15;0.90;;;;;;;;;;5045350;28;20041;-64
2023/10/29 03:27:10;;;;;;;1.25;0.80;;;;;;;;;;5045814;28;20523;-64
2023/10/29 03:29:36;;;;;;;2.90;1.05;;;;;;;;;;5044621;28;20088;-64
2023/10/29 03:32:03;;;;;;;1.33;1.10;;;;;;;;;;5044382;28;20055;-64
2023/10/29 03:34:31;;;;;;;0.90;0.90;;;;;;;;;;5045721;28;20049;-64
2023/10/29 03:36:57;;;;;;;1.42;1.00;;;;;;;;;;5040749;28;20044;-64
2023/10/29 03:39:23;;;;;;;1.15;0.90;;;;;;;;;;5047435;28;20041;-63
2023/10/29 03:41:49;;;;;;;1.05;0.82;;;;;;;;;;5046820;28;20055;-64
2023/10/29 03:44:15;;;;;;;1.70;0.98;;;;;;;;;;5044810;28;20053;-64
2023/10/29 03:46:41;;;;;;;1.70;0.80;;;;;;;;;;5044268;28;20049;-63
2023/10/29 03:49:08;;;;;;;0.82;0.80;;;;;;;;;;5045210;28;20049;-64
2023/10/29 03:51:34;;;;;;;1.38;1.10;;;;;;;;;;5045310;28;20106;-64
2023/10/29 03:54:00;;;;;;;0.95;0.77;;;;;;;;;;5045480;28;20507;-64
2023/10/29 03:56:25;;;;;;;1.30;0.95;;;;;;;;;;5044417;28;20045;-63
2023/10/29 03:58:51;;;;;;;0.90;0.90;;;;;;;;;;5045778;28;20382;-64
2023/10/29 04:01:18;;;;;;;0.98;0.95;;;;;;;;;;5046271;28;20072;-63
2023/10/29 04:03:44;;;;;;;1.00;0.80;;;;;;;;;;5045417;28;20095;-64
2023/10/29 04:06:11;;;;;;;1.40;1.00;;;;;;;;;;5044530;28;20065;-64
2023/10/29 04:08:38;;;;;;;0.70;0.63;;;;;;;;;;5045047;28;20055;-64
2023/10/29 04:11:04;;;;;;;2.30;0.80;;;;;;;;;;5045825;28;20071;-63
2023/10/29 04:13:30;;;;;;;0.93;0.50;;;;;;;;;;5045472;28;20033;-64
2023/10/29 04:15:56;;;;;;;0.77;0.65;;;;;;;;;;5045431;28;20064;-64
2023/10/29 04:18:24;;;;;;;4.97;1.23;;;;;;;;;;5046442;28;20088;-64
2023/10/29 04:20:50;;;;;;;1.85;0.63;;;;;;;;;;5045284;28;20126;-64
2023/10/29 04:23:17;;;;;;;2.22;0.77;;;;;;;;;;5046085;28;20049;-63
2023/10/29 04:25:44;;;;;;;1.42;0.70;;;;;;;;;;5044402;28;20076;-64
2023/10/29 04:28:10;;;;;;;1.35;0.88;;;;;;;;;;5046388;28;20056;-64
2023/10/29 04:30:36;;;;;;;0.70;0.60;;;;;;;;;;5046176;28;20584;-64
2023/10/29 04:33:02;;;;;;;2.67;0.90;;;;;;;;;;5044531;28;20076;-64
2023/10/29 04:35:29;;;;;;;2.40;0.77;;;;;;;;;;5046350;28;20040;-64
2023/10/29 04:37:55;;;;;;;4.00;1.00;;;;;;;;;;5045704;28;20029;-64
2023/10/29 04:40:21;;;;;;;1.00;0.60;;;;;;;;;;5043365;28;20781;-64
2023/10/29 04:42:47;;;;;;;1.48;0.60;;;;;;;;;;5045991;28;20067;-65
2023/10/29 04:45:14;;;;;;;1.48;0.52;;;;;;;;;;5043355;28;20060;-64
2023/10/29 04:47:40;;;;;;;1.75;0.68;;;;;;;;;;5045224;28;20039;-64
2023/10/29 04:50:06;;;;;;;0.90;0.43;;;;;;;;;;5044779;28;20048;-64
2023/10/29 04:52:33;;;;;;;0.68;0.40;;;;;;;;;;5044836;28;20392;-64
2023/10/29 04:55:00;;;;;;;1.50;0.30;;;;;;;;;;5044563;28;20446;-64
2023/10/29 04:57:27;;;;;;;0.77;0.35;;;;;;;;;;5045733;28;20080;-64
2023/10/29 04:59:53;;;;;;;0.70;0.30;;;;;;;;;;5045338;28;20129;-64
2023/10/29 05:02:19;;;;;;;1.17;0.45;;;;;;;;;;5044558;28;20376;-64
2023/10/29 05:04:45;;;;;;;0.73;0.50;;;;;;;;;;5045231;28;20094;-64
2023/10/29 05:07:11;;;;;;;0.38;0.38;;;;;;;;;;5043279;28;20056;-64
2023/10/29 05:09:37;;;;;;;0.30;0.20;;;;;;;;;;5043003;28;20498;-64
2023/10/29 05:12:03;;;;;;;0.85;0.45;;;;;;;;;;5045311;28;20048;-64
2023/10/29 05:14:29;;;;;;;1.23;0.30;;;;;;;;;;5044031;28;20131;-64
2023/10/29 05:16:56;;;;;;;0.35;0.30;;;;;;;;;;5043104;28;20659;-63
2023/10/29 05:19:22;;;;;;;0.98;0.30;;;;;;;;;;5044139;28;20123;-63
2023/10/29 05:21:49;;;;;;;1.60;0.20;;;;;;;;;;5043351;28;20042;-63
2023/10/29 05:24:15;;;;;;;1.45;0.30;;;;;;;;;;5042099;28;20399;-64
2023/10/29 05:26:42;;;;;;;0.30;0.20;;;;;;;;;;5044586;28;20128;-64
2023/10/29 05:29:08;;;;;;;2.30;0.20;;;;;;;;;;5040648;28;20040;-63
2023/10/29 05:31:34;;;;;;;0.68;0.30;;;;;;;;;;5044600;28;20051;-64
2023/10/29 05:34:01;;;;;;;0.20;0.20;;;;;;;;;;5045100;28;20048;-63
2023/10/29 05:36:27;;;;;;;1.15;0.40;;;;;;;;;;5044148;28;20406;-63
2023/10/29 05:38:53;;;;;;;0.82;0.40;;;;;;;;;;5043232;28;20051;-63
2023/10/29 05:41:19;;;;;;;0.90;0.38;;;;;;;;;;5043674;28;20052;-64
2023/10/29 05:43:45;;;;;;;0.68;0.35;;;;;;;;;;5042028;28;20098;-64
2023/10/29 05:46:15;;;;;;;0.93;0.57;;;;;;;;;;5044619;28;20045;-64
2023/10/29 05:48:41;;;;;;;0.45;0.30;;;;;;;;;;5043195;28;20044;-64
2023/10/29 05:51:12;;;;;;;0.30;0.30;;;;;;;;;;5042521;28;20048;-63
2023/10/29 05:53:38;;;;;;;0.22;0.20;;;;;;;;;;5039791;28;20049;-64
2023/10/29 05:56:04;;;;;;;0.20;0.20;;;;;;;;;;5044482;28;20476;-64
2023/10/29 05:58:31;;;;;;;0.63;0.35;;;;;;;;;;5043458;28;20126;-64
2023/10/29 06:00:57;;;;;;;1.02;0.57;;;;;;;;;;5042802;28;20119;-64
2023/10/29 06:03:23;;;;;;;1.10;0.20;;;;;;;;;;5044791;28;20426;-64
2023/10/29 06:05:51;;;;;;;0.95;0.40;;;;;;;;;;5040866;28;20088;-64
2023/10/29 06:08:17;;;;;;;1.92;0.40;;;;;;;;;;5044858;28;20132;-64
2023/10/29 06:10:43;;;;;;;0.70;0.38;;;;;;;;;;5044404;28;20124;-64
2023/10/29 06:13:09;;;;;;;7.93;1.38;;;;;;;;;;5043965;28;20068;-65
2023/10/29 06:15:35;;;;;;;2.58;0.40;;;;;;;;;;5044078;28;20045;-64
2023/10/29 06:18:04;;;;;;;1.83;0.50;;;;;;;;;;5043137;28;20506;-64
2023/10/29 06:20:30;;;;;;;0.43;0.30;;;;;;;;;;5043729;28;20052;-64
2023/10/29 06:22:55;;;;;;;0.85;0.38;;;;;;;;;;5043259;28;20037;-64
2023/10/29 06:25:21;;;;;;;0.40;0.40;;;;;;;;;;5044261;28;20041;-64
2023/10/29 06:27:47;;;;;;;0.50;0.30;;;;;;;;;;5042250;28;20124;-64
2023/10/29 06:30:14;;;;;;;0.93;0.30;;;;;;;;;;5041491;28;20053;-65
2023/10/29 06:32:40;;;;;;;1.13;0.20;;;;;;;;;;5044170;28;20063;-64
2023/10/29 06:35:06;;;;;;;0.20;0.20;;;;;;;;;;5043276;28;20053;-64
2023/10/29 06:37:32;;;;;;;1.70;0.30;;;;;;;;;;5035779;28;20053;-64
2023/10/29 06:39:58;;;;;;;0.68;0.30;;;;;;;;;;5044877;28;20048;-63
2023/10/29 06:42:24;;;;;;;0.57;0.30;;;;;;;;;;5044646;28;20113;-63
2023/10/29 06:44:50;;;;;;;0.70;0.43;;;;;;;;;;5047522;28;20041;-63
2023/10/29 06:47:16;;;;;;;0.60;0.35;;;;;;;;;;5047064;28;20159;-64
2023/10/29 06:49:43;;;;;;;0.50;0.20;;;;;;;;;;5046534;28;20440;-63
2023/10/29 06:52:09;;;;;;;1.52;0.77;;;;;;;;;;5048513;28;20399;-64
2023/10/29 06:54:35;;;;;;;0.82;0.50;;;;;;;;;;5046424;28;20060;-64
2023/10/29 06:57:02;;;;;;;0.93;0.68;;;;;;;;;;5046527;28;20049;-64
2023/10/29 06:59:31;;;;;;;2.20;0.57;;;;;;;;;;5046367;28;20033;-63
2023/10/29 07:01:59;;;;;;;1.63;0.57;;;;;;;;;;5054459;28;20424;-64
2023/10/29 07:04:25;;;;;;;1.98;0.50;;;;;;;;;;5044920;28;20060;-64
2023/10/29 07:06:51;;;;;;;2.75;0.70;;;;;;;;;;5045755;28;20064;-64
2023/10/29 07:09:18;;;;;;;1.55;0.63;;;;;;;;;;5046396;28;20045;-63
2023/10/29 07:11:44;;;;;;;1.55;0.88;;;;;;;;;;5046315;28;20053;-63
2023/10/29 07:14:10;;;;;;;2.13;0.73;;;;;;;;;;5046554;28;20518;-64
2023/10/29 07:16:37;;;;;;;0.63;0.22;;;;;;;;;;5046114;28;20571;-63
2023/10/29 07:19:04;;;;;;;1.17;0.70;;;;;;;;;;5046537;28;20047;-64
2023/10/29 07:21:30;;;;;;;1.33;0.60;;;;;;;;;;5047234;28;20049;-64
2023/10/29 07:23:56;;;;;;;1.15;0.50;;;;;;;;;;5044961;28;20053;-64
2023/10/29 07:26:22;;;;;;;3.72;1.15;;;;;;;;;;5047617;28;20045;-64
2023/10/29 07:28:48;;;;;;;0.52;0.40;;;;;;;;;;5045652;28;20128;-64
2023/10/29 07:31:14;;;;;;;1.85;0.40;;;;;;;;;;5046633;28;20456;-64
2023/10/29 07:33:40;;;;;;;0.95;0.60;;;;;;;;;;5045796;28;20049;-65
2023/10/29 07:36:07;;;;;;;3.95;0.73;;;;;;;;;;5047205;28;20093;-64
2023/10/29 07:38:33;;;;;;;1.83;0.60;;;;;;;;;;5045767;28;20076;-64
2023/10/29 07:40:59;;;;;;;3.92;0.80;;;;;;;;;;5045925;28;20320;-64
2023/10/29 07:43:25;;;;;;;1.77;0.52;;;;;;;;;;5044538;28;20472;-64
2023/10/29 07:45:52;;;;;;;1.08;0.73;;;;;;;;;;5045448;28;20049;-64
2023/10/29 07:48:18;;;;;;;2.85;0.77;;;;;;;;;;5047025;28;20048;-64
2023/10/29 07:50:53;;;;;;;0.73;0.50;;;;;;;;;;5037098;28;20033;-64
2023/10/29 07:53:19;;;;;;;0.90;0.50;;;;;;;;;;5044626;28;20129;-64
2023/10/29 07:55:46;;;;;;;1.27;0.63;;;;;;;;;;5045401;28;20583;-64
2023/10/29 07:58:12;;;;;;;2.85;0.65;;;;;;;;;;5044459;28;20053;-64
2023/10/29 08:00:38;;;;;;;2.38;0.55;;;;;;;;;;5044439;28;20491;-64
2023/10/29 08:03:04;;;;;;;2.20;0.50;;;;;;;;;;5044367;28;20052;-64
2023/10/29 08:05:31;;;;;;;0.77;0.55;;;;;;;;;;5044459;28;20194;-64
2023/10/29 08:07:57;;;;;;;1.63;0.47;;;;;;;;;;5045180;28;20056;-64
2023/10/29 08:10:24;;;;;;;2.17;0.50;;;;;;;;;;5046621;28;20393;-64
2023/10/29 08:12:50;;;;;;;1.70;0.82;;;;;;;;;;5044797;28;20045;-64
2023/10/29 08:15:17;;;;;;;1.58;0.70;;;;;;;;;;5046479;28;20146;-64
2023/10/29 08:17:43;;;;;;;2.75;0.52;;;;;;;;;;5047973;28;20245;-64
2023/10/29 08:20:10;;;;;;;3.13;0.75;;;;;;;;;;5046314;28;20149;-64
2023/10/29 08:22:36;;;;;;;1.30;0.47;;;;;;;;;;5046594;28;20434;-64
2023/10/29 08:25:02;;;;;;;1.40;0.45;;;;;;;;;;5061677;28;20418;-64
2023/10/29 08:27:29;;;;;;;2.45;0.85;;;;;;;;;;5043835;28;20033;-64
2023/10/29 08:29:56;;;;;;;1.60;0.63;;;;;;;;;;5045248;28;20052;-64
2023/10/29 08:32:22;;;;;;;2.13;0.80;;;;;;;;;;5042920;28;20534;-64
2023/10/29 08:34:48;;;;;;;1.80;0.70;;;;;;;;;;5044907;28;20037;-63
2023/10/29 08:37:14;;;;;;;4.63;0.80;;;;;;;;;;5043480;28;20511;-64
2023/10/29 08:39:40;;;;;;;2.58;0.73;;;;;;;;;;5042894;28;20045;-64
2023/10/29 08:42:06;;;;;;;2.55;0.90;;;;;;;;;;5042071;28;20106;-64
2023/10/29 08:44:32;;;;;;;2.92;0.80;;;;;;;;;;5060910;28;20045;-64
2023/10/29 08:46:58;;;;;;;2.80;0.98;;;;;;;;;;5042377;28;20044;-64
2023/10/29 08:49:24;;;;;;;5.57;1.00;;;;;;;;;;5043503;28;20396;-64
2023/10/29 08:51:50;;;;;;;3.60;1.02;;;;;;;;;;5043649;28;20102;-64
2023/10/29 08:54:16;;;;;;;6.05;1.20;;;;;;;;;;5042092;28;20144;-64
2023/10/29 08:56:42;;;;;;;3.33;0.90;;;;;;;;;;5042278;28;20075;-64
2023/10/29 08:59:09;;;;;;;4.25;0.57;;;;;;;;;;5043370;28;20048;-63
2023/10/29 09:01:35;;;;;;;2.83;0.73;;;;;;;;;;5043182;28;20060;-64
2023/10/29 09:04:03;;;;;;;3.83;0.90;;;;;;;;;;5044236;28;20072;-65
2023/10/29 09:06:29;;;;;;;4.18;1.40;;;;;;;;;;5043708;28;20061;-64
2023/10/29 09:08:55;;;;;;;3.13;1.10;;;;;;;;;;5041190;28;20601;-64
2023/10/29 09:11:21;;;;;;;2.63;0.75;;;;;;;;;;5043337;28;20451;-64
2023/10/29 09:13:47;;;;;;;2.08;0.93;;;;;;;;;;5043052;28;20193;-64
2023/10/29 09:16:14;;;;;;;3.05;0.90;;;;;;;;;;5040209;28;20048;-64
2023/10/29 09:18:40;;;;;;;3.35;0.65;;;;;;;;;;5042598;28;20205;-65
2023/10/29 09:21:06;;;;;;;1.25;0.57;;;;;;;;;;5058424;28;20061;-65
2023/10/29 09:23:32;;;;;;;3.00;0.85;;;;;;;;;;5043071;28;20060;-64
2023/10/29 09:25:59;;;;;;;3.20;0.55;;;;;;;;;;5045304;28;20225;-64
2023/10/29 09:28:26;;;;;;;2.90;0.80;;;;;;;;;;5038642;28;20040;-65
2023/10/29 09:30:52;;;;;;;2.83;0.90;;;;;;;;;;5043468;28;20045;-65
2023/10/29 09:33:18;;;;;;;1.52;0.60;;;;;;;;;;5044858;28;20052;-63
2023/10/29 09:35:44;;;;;;;4.53;1.15;;;;;;;;;;5044213;28;20494;-61
2023/10/29 09:38:10;;;;;;;2.72;0.85;;;;;;;;;;5043966;28;20045;-61
2023/10/29 09:40:37;;;;;;;2.13;0.70;;;;;;;;;;5044835;28;20791;-61
2023/10/29 09:43:04;;;;;;;3.85;0.90;;;;;;;;;;5043300;28;20194;-61
2023/10/29 09:45:35;;;;;;;3.00;0.90;;;;;;;;;;5043781;28;20582;-61
2023/10/29 09:48:02;;;;;;;5.75;1.23;;;;;;;;;;5043604;28;20376;-61
2023/10/29 09:50:28;;;;;;;5.03;0.75;;;;;;;;;;5042417;28;20052;-61
2023/10/29 09:52:55;;;;;;;1.40;0.68;;;;;;;;;;5042409;28;20060;-63
2023/10/29 09:55:21;;;;;;;1.20;0.60;;;;;;;;;;5046345;28;20140;-63
2023/10/29 09:57:48;;;;;;;4.60;0.85;;;;;;;;;;5042201;28;20431;-63
2023/10/29 10:00:17;;;;;;;2.55;0.70;;;;;;;;;;5041370;28;20495;-63
2023/10/29 10:02:56;;;;;;;3.95;1.08;;;;;;;;;;5054547;28;20094;-63
2023/10/29 10:05:23;;;;;;;2.53;0.93;;;;;;;;;;5037453;28;20040;-64
2023/10/29 10:07:51;;;;;;;1.35;0.90;;;;;;;;;;5040838;28;20479;-67
2023/10/29 10:10:20;;;;;;;1.88;0.75;;;;;;;;;;5058117;28;20049;-68
2023/10/29 10:12:47;;;;;;;4.72;1.17;;;;;;;;;;5035764;28;20152;-70
2023/10/29 10:15:13;;;;;;;2.75;1.15;;;;;;;;;;5037602;28;20565;-66
2023/10/29 10:17:40;;;;;;;3.50;1.10;;;;;;;;;;5039362;28;20041;-63
2023/10/29 10:20:07;;;;;;;3.47;1.13;;;;;;;;;;5056140;28;20102;-61
2023/10/29 10:22:36;;;;;;;5.18;1.13;;;;;;;;;;5041980;28;20048;-61
2023/10/29 10:25:03;;;;;;;2.20;0.90;;;;;;;;;;5040009;28;20434;-61
2023/10/29 10:27:29;;;;;;;4.43;0.77;;;;;;;;;;5042835;28;20048;-62
2023/10/29 10:29:55;;;;;;;4.05;0.95;;;;;;;;;;5041443;28;20044;-61
2023/10/29 10:32:24;;;;;;;3.25;0.73;;;;;;;;;;5038495;28;20048;-61
2023/10/29 10:34:51;;;;;;;5.03;1.20;;;;;;;;;;5032479;28;20045;-61
2023/10/29 10:37:17;;;;;;;5.35;1.13;;;;;;;;;;5036503;28;20409;-61
2023/10/29 10:39:43;;;;;;;5.03;1.10;;;;;;;;;;5038655;28;20044;-61
2023/10/29 10:42:09;;;;;;;2.67;1.05;;;;;;;;;;5033402;28;20407;-61
2023/10/29 10:44:36;;;;;;;3.00;0.77;;;;;;;;;;5040249;28;20071;-61
2023/10/29 10:47:03;;;;;;;5.10;0.60;;;;;;;;;;5038748;28;20037;-60
2023/10/29 10:49:32;;;;;;;3.17;0.80;;;;;;;;;;5041697;28;20123;-61
2023/10/29 10:52:01;;;;;;;2.63;0.77;;;;;;;;;;5041087;28;20048;-61
2023/10/29 10:54:27;;;;;;;1.42;0.50;;;;;;;;;;5036924;28;20186;-61
2023/10/29 10:56:53;;;;;;;3.72;1.05;;;;;;;;;;5038522;28;20045;-61
2023/10/29 10:59:20;;;;;;;6.10;0.95;;;;;;;;;;5037767;28;20140;-61
2023/10/29 11:01:46;;;;;;;2.38;1.25;;;;;;;;;;5035666;28;20044;-62
2023/10/29 11:04:12;;;;;;;5.07;1.02;;;;;;;;;;5035603;28;20049;-61
2023/10/29 11:06:39;;;;;;;4.90;1.48;;;;;;;;;;5031804;28;20125;-61
2023/10/29 11:09:12;;;;;;;3.10;0.82;;;;;;;;;;5033068;28;20091;-61
2023/10/29 11:11:57;;;;;;;2.40;0.80;;;;;;;;;;5035805;28;20167;-61
2023/10/29 11:14:24;;;;;;;5.75;1.58;;;;;;;;;;5050768;28;20061;-61
2023/10/29 11:16:50;;;;;;;6.50;1.45;;;;;;;;;;5040546;28;20110;-61
2023/10/29 11:19:35;;;;;;;4.43;1.58;;;;;;;;;;5041216;28;20482;-61
2023/10/29 11:22:20;;;;;;;2.53;0.93;;;;;;;;;;5038393;28;20056;-62
2023/10/29 11:25:05;;;;;;;4.55;1.10;;;;;;;;;;5039111;28;20051;-61
2023/10/29 11:27:37;;;;;;;3.90;1.40;;;;;;;;;;5040777;28;20504;-61
2023/10/29 11:30:20;;;;;;;4.78;1.70;;;;;;;;;;5038806;28;20056;-61
2023/10/29 11:32:47;;;;;;;5.00;1.20;;;;;;;;;;5040564;28;20546;-61
2023/10/29 11:35:17;;;;;;;3.35;1.13;;;;;;;;;;5037883;28;20049;-61
2023/10/29 11:37:43;;;;;;;3.83;0.70;;;;;;;;;;5054047;28;20049;-62
2023/10/29 11:40:31;;;;;;;3.40;1.00;;;;;;;;;;5040454;28;20047;-61
2023/10/29 11:43:13;;;;;;;4.63;1.50;;;;;;;;;;5039009;28;20067;-61
2023/10/29 11:45:40;;;;;;;3.75;1.33;;;;;;;;;;5042285;28;20087;-61
2023/10/29 11:48:09;;;;;;;6.05;1.02;;;;;;;;;;5041325;28;20245;-61
2023/10/29 11:50:35;;;;;;;2.65;1.00;;;;;;;;;;5039948;28;20044;-61
2023/10/29 11:53:01;;;;;;;2.05;1.08;;;;;;;;;;5036640;28;20674;-61
2023/10/29 11:55:29;;;;;;;3.22;1.17;;;;;;;;;;5039081;28;20369;-61
2023/10/29 11:57:55;;;;;;;4.90;1.77;;;;;;;;;;5037551;28;20049;-61
2023/10/29 12:00:24;;;;;;;5.20;1.60;;;;;;;;;;5040433;28;20099;-61
2023/10/29 12:02:50;;;;;;;4.75;1.27;;;;;;;;;;5038473;28;20375;-61
2023/10/29 12:05:16;;;;;;;4.32;1.42;;;;;;;;;;5036743;28;20045;-61
2023/10/29 12:07:42;;;;;;;5.32;1.80;;;;;;;;;;5036239;28;20140;-62
2023/10/29 12:10:08;;;;;;;5.18;1.30;;;;;;;;;;5050763;28;20136;-61
2023/10/29 12:12:35;;;;;;;7.47;1.58;;;;;;;;;;5046140;28;20412;-62
2023/10/29 12:15:01;;;;;;;2.65;1.13;;;;;;;;;;5042792;28;20045;-61
2023/10/29 12:17:28;;;;;;;5.22;1.50;;;;;;;;;;5041180;28;20399;-61
2023/10/29 12:19:54;;;;;;;2.38;0.90;;;;;;;;;;5044889;28;20475;-61
2023/10/29 12:22:21;;;;;;;5.30;1.40;;;;;;;;;;5045781;28;20566;-62
2023/10/29 12:24:48;;;;;;;7.07;1.80;;;;;;;;;;5043440;28;20049;-62
2023/10/29 12:27:15;;;;;;;7.55;1.60;;;;;;;;;;5045922;28;20281;-61
2023/10/29 12:29:41;;;;;;;4.93;1.20;;;;;;;;;;5044533;28;20091;-62
2023/10/29 12:32:16;;;;;;;5.18;1.63;;;;;;;;;;5041227;28;21002;-63
2023/10/29 12:34:45;;;;;;;3.80;1.33;;;;;;;;;;5039760;28;20041;-62
2023/10/29 12:37:19;;;;;;;2.63;1.13;;;;;;;;;;5042713;28;20506;-63
2023/10/29 12:39:46;;;;;;;5.43;1.50;;;;;;;;;;5041173;28;20053;-62
2023/10/29 12:42:12;;;;;;;3.10;1.10;;;;;;;;;;5041197;28;20052;-62
2023/10/29 12:44:38;;;;;;;4.93;1.33;;;;;;;;;;5044348;28;20508;-62
2023/10/29 12:47:06;;;;;;;3.35;1.05;;;;;;;;;;5044654;28;20045;-62
2023/10/29 12:49:34;;;;;;;7.22;1.90;;;;;;;;;;5043467;28;20559;-61
2023/10/29 12:52:02;;;;;;;5.07;0.90;;;;;;;;;;5044739;28;20254;-62
2023/10/29 12:54:29;;;;;;;4.50;1.35;;;;;;;;;;5043607;28;20079;-61
2023/10/29 12:57:02;;;;;;;6.70;1.02;;;;;;;;;;5040782;28;20127;-69
2023/10/29 12:59:32;;;;;;;4.70;1.30;;;;;;;;;;5058002;28;20534;-62
2023/10/29 13:01:59;;;;;;;2.80;0.85;;;;;;;;;;5040538;28;20407;-63
2023/10/29 13:04:25;;;;;;;3.92;0.70;;;;;;;;;;5042500;28;20120;-61
2023/10/29 13:06:55;;;;;;;5.40;1.33;;;;;;;;;;5040343;28;20500;-61
2023/10/29 13:09:22;;;;;;;2.83;1.13;;;;;;;;;;5044572;28;20151;-61
2023/10/29 13:11:51;;;;;;;1.75;0.95;;;;;;;;;;5044941;28;20087;-61
2023/10/29 13:14:17;;;;;;;3.10;0.93;;;;;;;;;;5041841;28;20079;-61
2023/10/29 13:16:43;;;;;;;5.60;1.00;;;;;;;;;;5044507;28;20052;-62
2023/10/29 13:19:12;;;;;;;5.15;1.30;;;;;;;;;;5043743;28;20053;-61
2023/10/29 13:21:38;;;;;;;3.38;0.85;;;;;;;;;;5042763;28;20514;-61
2023/10/29 13:24:05;;;;;;;8.65;1.58;;;;;;;;;;5039277;28;20045;-61
2023/10/29 13:26:31;;;;;;;1.83;0.80;;;;;;;;;;5044916;28;20051;-61
2023/10/29 13:28:57;;;;;;;4.85;1.52;;;;;;;;;;5042200;28;20494;-61
2023/10/29 13:31:23;;;;;;;4.32;1.17;;;;;;;;;;5044362;28;20049;-61
2023/10/29 13:33:49;;;;;;;3.42;1.10;;;;;;;;;;5043571;28;20041;-61
2023/10/29 13:36:16;;;;;;;4.00;1.00;;;;;;;;;;5042931;28;20053;-61
2023/10/29 13:38:42;;;;;;;2.03;1.00;;;;;;;;;;5042069;28;20127;-61
2023/10/29 13:41:09;;;;;;;3.20;1.17;;;;;;;;;;5044190;28;20480;-61
2023/10/29 13:43:35;;;;;;;3.17;1.35;;;;;;;;;;5043528;28;20049;-61
2023/10/29 13:46:02;;;;;;;4.55;1.38;;;;;;;;;;5043886;28;20037;-61
2023/10/29 13:48:28;;;;;;;4.85;1.40;;;;;;;;;;5044372;28;20052;-62
2023/10/29 13:50:54;;;;;;;4.72;1.02;;;;;;;;;;5042931;28;20047;-61
2023/10/29 13:53:21;;;;;;;2.63;1.05;;;;;;;;;;5043965;28;20417;-61
2023/10/29 13:55:47;;;;;;;3.05;0.98;;;;;;;;;;5041679;28;20048;-61
2023/10/29 13:58:13;;;;;;;4.63;1.15;;;;;;;;;;5043783;28;20053;-61
2023/10/29 14:00:39;;;;;;;5.43;1.20;;;;;;;;;;5042841;28;20072;-61
2023/10/29 14:03:05;;;;;;;3.50;1.02;;;;;;;;;;5042380;28;20396;-61
2023/10/29 14:05:31;;;;;;;4.25;1.33;;;;;;;;;;5043109;28;20676;-62
2023/10/29 14:07:59;;;;;;;4.22;1.42;;;;;;;;;;5040603;28;20470;-63
2023/10/29 14:10:25;;;;;;;4.50;1.48;;;;;;;;;;5040392;28;20087;-61
2023/10/29 14:12:51;;;;;;;3.85;1.15;;;;;;;;;;5040763;28;20076;-61
2023/10/29 14:15:17;;;;;;;3.10;1.08;;;;;;;;;;5038734;28;20078;-61
2023/10/29 14:17:43;;;;;;;4.63;1.17;;;;;;;;;;5036546;28;20465;-61
2023/10/29 14:20:09;;;;;;;2.08;0.80;;;;;;;;;;5036545;28;20118;-61
2023/10/29 14:22:35;;;;;;;3.60;1.00;;;;;;;;;;5039988;28;20067;-61
2023/10/29 14:25:03;;;;;;;5.07;1.40;;;;;;;;;;5034278;28;20459;-61
2023/10/29 14:27:29;;;;;;;6.00;1.45;;;;;;;;;;5034134;28;20084;-61
2023/10/29 14:29:56;;;;;;;4.22;1.10;;;;;;;;;;5037356;28;20390;-61
2023/10/29 14:32:22;;;;;;;3.03;0.90;;;;;;;;;;5038381;28;20501;-61
2023/10/29 14:34:48;;;;;;;4.75;1.17;;;;;;;;;;5036694;28;20053;-61
2023/10/29 14:37:14;;;;;;;5.28;1.42;;;;;;;;;;5039133;28;20526;-61
2023/10/29 14:39:41;;;;;;;1.85;0.88;;;;;;;;;;5039554;28;20041;-61
2023/10/29 14:42:07;;;;;;;2.55;0.70;;;;;;;;;;5040574;28;21382;-61